Terminal Aerodrome Forecast
Issued by NWS

Home | Current Version | Previous Version | Text Only | Print | Product List | Glossary On
Versions: 1 2 3 4 5 6 7 8 9 10 11 12 13 14 15 16 17 18 19 20 21 22 23 24 25 26 27 28 29 30 31 32 33 34 35 36 37 38 39 40 41 42 43 44 45 46 47 48 49 50
362
FTUS45 KGJT 290301 AAB
TAFASE
TAF AMD
KASE 290301Z 2903/2924 00000KT P6SM VCSH SCT060 BKN070 BKN100
      TEMPO 2903/2905 4SM -SHRASN SCT020 OVC035
     FM291100 16005KT 3SM -SHSNRA OVC020
     FM291900 32010KT P6SM -SHSNRA OVC025=

USA.gov is the U.S. government's official web portal to all federal, state and local government web resources and services.